sensor_id;sensor_type;location;lat;lon;timestamp;P1;durP1;ratioP1;P2;durP2;ratioP2
9409;SDS011;4744;52.576;13.568;2022-08-01T00:01:30;3.17;;;2.97;;
9409;SDS011;4744;52.576;13.568;2022-08-01T00:03:57;3.30;;;3.00;;
9409;SDS011;4744;52.576;13.568;2022-08-01T00:06:26;3.97;;;3.40;;
9409;SDS011;4744;52.576;13.568;2022-08-01T00:08:53;4.40;;;3.40;;
9409;SDS011;4744;52.576;13.568;2022-08-01T00:11:20;3.60;;;3.30;;
9409;SDS011;4744;52.576;13.568;2022-08-01T00:13:47;3.70;;;3.40;;
9409;SDS011;4744;52.576;13.568;2022-08-01T00:16:14;3.67;;;3.38;;
9409;SDS011;4744;52.576;13.568;2022-08-01T00:18:41;3.72;;;3.45;;
9409;SDS011;4744;52.576;13.568;2022-08-01T00:21:08;2.90;;;2.70;;
9409;SDS011;4744;52.576;13.568;2022-08-01T00:23:36;4.35;;;3.33;;
9409;SDS011;4744;52.576;13.568;2022-08-01T00:26:03;3.42;;;3.22;;
9409;SDS011;4744;52.576;13.568;2022-08-01T00:28:30;3.92;;;3.47;;
9409;SDS011;4744;52.576;13.568;2022-08-01T00:30:57;3.58;;;3.38;;
9409;SDS011;4744;52.576;13.568;2022-08-01T00:33:24;3.90;;;3.60;;
9409;SDS011;4744;52.576;13.568;2022-08-01T00:35:50;4.80;;;3.70;;
9409;SDS011;4744;52.576;13.568;2022-08-01T00:38:17;4.18;;;3.80;;
9409;SDS011;4744;52.576;13.568;2022-08-01T00:40:45;3.97;;;3.67;;
9409;SDS011;4744;52.576;13.568;2022-08-01T00:43:12;3.95;;;3.70;;
9409;SDS011;4744;52.576;13.568;2022-08-01T00:45:39;4.63;;;4.15;;
9409;SDS011;4744;52.576;13.568;2022-08-01T00:48:06;4.10;;;3.70;;
9409;SDS011;4744;52.576;13.568;2022-08-01T00:50:33;4.05;;;3.40;;
9409;SDS011;4744;52.576;13.568;2022-08-01T00:53:01;4.53;;;4.13;;
9409;SDS011;4744;52.576;13.568;2022-08-01T00:55:28;4.32;;;3.90;;
9409;SDS011;4744;52.576;13.568;2022-08-01T00:57:58;3.92;;;3.63;;
9409;SDS011;4744;52.576;13.568;2022-08-01T01:00:26;4.43;;;4.03;;
9409;SDS011;4744;52.576;13.568;2022-08-01T01:02:53;4.25;;;3.95;;
9409;SDS011;4744;52.576;13.568;2022-08-01T01:05:20;3.95;;;3.53;;
9409;SDS011;4744;52.576;13.568;2022-08-01T01:07:48;4.30;;;3.90;;
9409;SDS011;4744;52.576;13.568;2022-08-01T01:10:21;4.05;;;3.75;;
9409;SDS011;4744;52.576;13.568;2022-08-01T01:12:52;3.95;;;3.60;;
9409;SDS011;4744;52.576;13.568;2022-08-01T01:15:29;4.10;;;3.80;;
9409;SDS011;4744;52.576;13.568;2022-08-01T01:18:02;4.30;;;3.90;;
9409;SDS011;4744;52.576;13.568;2022-08-01T01:20:30;4.78;;;4.47;;
9409;SDS011;4744;52.576;13.568;2022-08-01T01:23:09;4.60;;;4.30;;
9409;SDS011;4744;52.576;13.568;2022-08-01T01:26:01;4.65;;;4.18;;
9409;SDS011;4744;52.576;13.568;2022-08-01T01:28:49;4.43;;;4.07;;
9409;SDS011;4744;52.576;13.568;2022-08-01T01:31:27;4.53;;;4.13;;
9409;SDS011;4744;52.576;13.568;2022-08-01T01:33:57;3.58;;;3.38;;
9409;SDS011;4744;52.576;13.568;2022-08-01T01:36:25;3.58;;;3.38;;
9409;SDS011;4744;52.576;13.568;2022-08-01T01:38:54;3.38;;;3.08;;
9409;SDS011;4744;52.576;13.568;2022-08-01T01:41:22;3.70;;;3.50;;
9409;SDS011;4744;52.576;13.568;2022-08-01T01:43:52;3.55;;;3.35;;
9409;SDS011;4744;52.576;13.568;2022-08-01T01:46:20;3.38;;;3.08;;
9409;SDS011;4744;52.576;13.568;2022-08-01T01:48:52;3.45;;;3.25;;
9409;SDS011;4744;52.576;13.568;2022-08-01T01:51:21;3.90;;;3.60;;
9409;SDS011;4744;52.576;13.568;2022-08-01T01:53:48;3.70;;;3.40;;
9409;SDS011;4744;52.576;13.568;2022-08-01T01:56:17;3.70;;;3.50;;
9409;SDS011;4744;52.576;13.568;2022-08-01T01:58:48;3.50;;;3.30;;
9409;SDS011;4744;52.576;13.568;2022-08-01T02:01:19;3.13;;;3.00;;
9409;SDS011;4744;52.576;13.568;2022-08-01T02:03:47;3.75;;;3.47;;
9409;SDS011;4744;52.576;13.568;2022-08-01T02:06:16;3.60;;;3.40;;
9409;SDS011;4744;52.576;13.568;2022-08-01T02:08:43;3.30;;;3.10;;
9409;SDS011;4744;52.576;13.568;2022-08-01T02:11:11;3.90;;;3.60;;
9409;SDS011;4744;52.576;13.568;2022-08-01T02:13:44;3.50;;;3.30;;
9409;SDS011;4744;52.576;13.568;2022-08-01T02:16:18;3.72;;;3.53;;
9409;SDS011;4744;52.576;13.568;2022-08-01T02:18:48;3.55;;;3.25;;
9409;SDS011;4744;52.576;13.568;2022-08-01T02:21:16;3.50;;;3.30;;
9409;SDS011;4744;52.576;13.568;2022-08-01T02:23:49;3.72;;;3.53;;
9409;SDS011;4744;52.576;13.568;2022-08-01T02:26:17;3.50;;;3.30;;
9409;SDS011;4744;52.576;13.568;2022-08-01T02:28:46;3.40;;;3.20;;
9409;SDS011;4744;52.576;13.568;2022-08-01T02:31:17;4.03;;;3.70;;
9409;SDS011;4744;52.576;13.568;2022-08-01T02:33:50;4.07;;;3.78;;
9409;SDS011;4744;52.576;13.568;2022-08-01T02:36:22;3.80;;;3.60;;
9409;SDS011;4744;52.576;13.568;2022-08-01T02:38:51;4.07;;;3.70;;
9409;SDS011;4744;52.576;13.568;2022-08-01T02:41:21;3.97;;;3.67;;
9409;SDS011;4744;52.576;13.568;2022-08-01T02:43:51;3.60;;;3.40;;
9409;SDS011;4744;52.576;13.568;2022-08-01T02:46:22;3.65;;;3.28;;
9409;SDS011;4744;52.576;13.568;2022-08-01T02:48:53;3.83;;;3.63;;
9409;SDS011;4744;52.576;13.568;2022-08-01T02:51:23;4.25;;;3.63;;
9409;SDS011;4744;52.576;13.568;2022-08-01T02:53:51;3.70;;;3.50;;
9409;SDS011;4744;52.576;13.568;2022-08-01T02:56:19;3.83;;;3.55;;
9409;SDS011;4744;52.576;13.568;2022-08-01T02:58:48;4.57;;;4.18;;
9409;SDS011;4744;52.576;13.568;2022-08-01T03:01:18;4.10;;;3.80;;
9409;SDS011;4744;52.576;13.568;2022-08-01T03:03:48;4.97;;;4.60;;
9409;SDS011;4744;52.576;13.568;2022-08-01T03:06:15;4.00;;;3.70;;
9409;SDS011;4744;52.576;13.568;2022-08-01T03:08:43;4.50;;;4.20;;
9409;SDS011;4744;52.576;13.568;2022-08-01T03:11:11;4.32;;;4.03;;
9409;SDS011;4744;52.576;13.568;2022-08-01T03:13:39;4.55;;;4.25;;
9409;SDS011;4744;52.576;13.568;2022-08-01T03:16:07;4.30;;;4.00;;
9409;SDS011;4744;52.576;13.568;2022-08-01T03:18:37;5.85;;;4.10;;
9409;SDS011;4744;52.576;13.568;2022-08-01T03:21:05;4.10;;;3.80;;
9409;SDS011;4744;52.576;13.568;2022-08-01T03:23:34;3.90;;;3.60;;
9409;SDS011;4744;52.576;13.568;2022-08-01T03:26:03;4.10;;;3.70;;
9409;SDS011;4744;52.576;13.568;2022-08-01T03:28:32;3.38;;;3.17;;
9409;SDS011;4744;52.576;13.568;2022-08-01T03:30:59;3.72;;;3.53;;
9409;SDS011;4744;52.576;13.568;2022-08-01T03:33:27;4.57;;;4.18;;
9409;SDS011;4744;52.576;13.568;2022-08-01T03:35:56;4.30;;;3.97;;
9409;SDS011;4744;52.576;13.568;2022-08-01T03:38:26;4.70;;;4.30;;
9409;SDS011;4744;52.576;13.568;2022-08-01T03:40:58;3.72;;;3.53;;
9409;SDS011;4744;52.576;13.568;2022-08-01T03:43:30;4.63;;;4.32;;
9409;SDS011;4744;52.576;13.568;2022-08-01T03:46:01;4.63;;;4.32;;
9409;SDS011;4744;52.576;13.568;2022-08-01T03:48:32;4.30;;;4.00;;
9409;SDS011;4744;52.576;13.568;2022-08-01T03:51:04;4.90;;;4.47;;
9409;SDS011;4744;52.576;13.568;2022-08-01T03:53:32;4.47;;;4.18;;
9409;SDS011;4744;52.576;13.568;2022-08-01T03:56:01;4.28;;;3.90;;
9409;SDS011;4744;52.576;13.568;2022-08-01T03:58:29;4.05;;;3.83;;
9409;SDS011;4744;52.576;13.568;2022-08-01T04:00:57;3.92;;;3.67;;
9409;SDS011;4744;52.576;13.568;2022-08-01T04:03:25;3.78;;;3.47;;
9409;SDS011;4744;52.576;13.568;2022-08-01T04:05:52;3.70;;;3.50;;
9409;SDS011;4744;52.576;13.568;2022-08-01T04:08:20;3.25;;;3.05;;
9409;SDS011;4744;52.576;13.568;2022-08-01T04:10:47;4.25;;;3.95;;
9409;SDS011;4744;52.576;13.568;2022-08-01T04:13:14;3.70;;;3.50;;
9409;SDS011;4744;52.576;13.568;2022-08-01T04:15:41;4.40;;;4.10;;
9409;SDS011;4744;52.576;13.568;2022-08-01T04:18:07;3.80;;;3.60;;
9409;SDS011;4744;52.576;13.568;2022-08-01T04:20:34;4.75;;;4.45;;
9409;SDS011;4744;52.576;13.568;2022-08-01T04:23:01;4.18;;;3.88;;
9409;SDS011;4744;52.576;13.568;2022-08-01T04:25:32;4.00;;;3.80;;
9409;SDS011;4744;52.576;13.568;2022-08-01T04:28:01;4.18;;;3.78;;
9409;SDS011;4744;52.576;13.568;2022-08-01T04:30:31;4.43;;;4.03;;
9409;SDS011;4744;52.576;13.568;2022-08-01T04:33:01;4.30;;;4.00;;
9409;SDS011;4744;52.576;13.568;2022-08-01T04:35:31;5.00;;;4.47;;
9409;SDS011;4744;52.576;13.568;2022-08-01T04:38:00;4.53;;;4.10;;
9409;SDS011;4744;52.576;13.568;2022-08-01T04:40:28;4.10;;;3.80;;
9409;SDS011;4744;52.576;13.568;2022-08-01T04:42:58;4.35;;;4.05;;
9409;SDS011;4744;52.576;13.568;2022-08-01T04:45:25;4.22;;;3.92;;
9409;SDS011;4744;52.576;13.568;2022-08-01T04:47:52;4.00;;;3.70;;
9409;SDS011;4744;52.576;13.568;2022-08-01T04:50:19;4.32;;;4.03;;
9409;SDS011;4744;52.576;13.568;2022-08-01T04:52:48;5.25;;;4.80;;
9409;SDS011;4744;52.576;13.568;2022-08-01T04:55:16;5.03;;;4.63;;
9409;SDS011;4744;52.576;13.568;2022-08-01T04:57:44;4.50;;;4.10;;
9409;SDS011;4744;52.576;13.568;2022-08-01T05:00:13;4.60;;;4.30;;
9409;SDS011;4744;52.576;13.568;2022-08-01T05:02:42;5.40;;;4.95;;
9409;SDS011;4744;52.576;13.568;2022-08-01T05:05:09;6.05;;;5.45;;
9409;SDS011;4744;52.576;13.568;2022-08-01T05:07:36;6.88;;;6.28;;
9409;SDS011;4744;52.576;13.568;2022-08-01T05:10:03;7.80;;;7.05;;
9409;SDS011;4744;52.576;13.568;2022-08-01T05:12:30;7.32;;;6.63;;
9409;SDS011;4744;52.576;13.568;2022-08-01T05:14:59;7.07;;;6.38;;
9409;SDS011;4744;52.576;13.568;2022-08-01T05:17:26;7.53;;;6.82;;
9409;SDS011;4744;52.576;13.568;2022-08-01T05:19:53;8.05;;;7.28;;
9409;SDS011;4744;52.576;13.568;2022-08-01T05:22:20;8.13;;;7.43;;
9409;SDS011;4744;52.576;13.568;2022-08-01T05:24:47;9.05;;;8.15;;
9409;SDS011;4744;52.576;13.568;2022-08-01T05:27:14;8.73;;;7.85;;
9409;SDS011;4744;52.576;13.568;2022-08-01T05:29:41;8.80;;;7.88;;
9409;SDS011;4744;52.576;13.568;2022-08-01T05:32:09;8.48;;;7.65;;
9409;SDS011;4744;52.576;13.568;2022-08-01T05:34:36;8.48;;;7.65;;
9409;SDS011;4744;52.576;13.568;2022-08-01T05:37:03;8.60;;;7.80;;
9409;SDS011;4744;52.576;13.568;2022-08-01T05:39:30;7.47;;;6.88;;
9409;SDS011;4744;52.576;13.568;2022-08-01T05:41:57;8.73;;;8.02;;
9409;SDS011;4744;52.576;13.568;2022-08-01T05:44:24;7.60;;;7.00;;
9409;SDS011;4744;52.576;13.568;2022-08-01T05:46:51;6.53;;;6.03;;
9409;SDS011;4744;52.576;13.568;2022-08-01T05:49:19;5.75;;;5.35;;
9409;SDS011;4744;52.576;13.568;2022-08-01T05:51:46;7.53;;;6.88;;
9409;SDS011;4744;52.576;13.568;2022-08-01T05:54:13;8.32;;;7.53;;
9409;SDS011;4744;52.576;13.568;2022-08-01T05:56:39;8.38;;;7.60;;
9409;SDS011;4744;52.576;13.568;2022-08-01T05:59:06;7.63;;;6.88;;
9409;SDS011;4744;52.576;13.568;2022-08-01T06:01:33;7.97;;;7.22;;
9409;SDS011;4744;52.576;13.568;2022-08-01T06:04:00;9.10;;;8.25;;
9409;SDS011;4744;52.576;13.568;2022-08-01T06:06:28;7.15;;;6.45;;
9409;SDS011;4744;52.576;13.568;2022-08-01T06:08:55;8.50;;;7.70;;
9409;SDS011;4744;52.576;13.568;2022-08-01T06:11:22;8.18;;;7.57;;
9409;SDS011;4744;52.576;13.568;2022-08-01T06:13:48;8.98;;;8.27;;
9409;SDS011;4744;52.576;13.568;2022-08-01T06:16:15;8.20;;;7.50;;
9409;SDS011;4744;52.576;13.568;2022-08-01T06:18:42;6.57;;;6.07;;
9409;SDS011;4744;52.576;13.568;2022-08-01T06:21:09;8.40;;;7.70;;
9409;SDS011;4744;52.576;13.568;2022-08-01T06:23:37;7.05;;;6.50;;
9409;SDS011;4744;52.576;13.568;2022-08-01T06:26:06;7.72;;;7.03;;
9409;SDS011;4744;52.576;13.568;2022-08-01T06:28:33;8.23;;;7.55;;
9409;SDS011;4744;52.576;13.568;2022-08-01T06:31:00;8.40;;;7.65;;
9409;SDS011;4744;52.576;13.568;2022-08-01T06:33:26;8.55;;;7.80;;
9409;SDS011;4744;52.576;13.568;2022-08-01T06:35:53;8.13;;;7.53;;
9409;SDS011;4744;52.576;13.568;2022-08-01T06:38:20;11.10;;;7.57;;
9409;SDS011;4744;52.576;13.568;2022-08-01T06:40:48;7.85;;;7.25;;
9409;SDS011;4744;52.576;13.568;2022-08-01T06:43:15;8.88;;;7.97;;
9409;SDS011;4744;52.576;13.568;2022-08-01T06:45:43;7.30;;;6.72;;
9409;SDS011;4744;52.576;13.568;2022-08-01T06:48:10;6.78;;;6.18;;
9409;SDS011;4744;52.576;13.568;2022-08-01T06:50:37;7.50;;;6.85;;
9409;SDS011;4744;52.576;13.568;2022-08-01T06:53:04;5.97;;;5.47;;
9409;SDS011;4744;52.576;13.568;2022-08-01T06:55:31;6.75;;;6.13;;
9409;SDS011;4744;52.576;13.568;2022-08-01T06:57:59;6.03;;;5.43;;
9409;SDS011;4744;52.576;13.568;2022-08-01T07:00:26;4.53;;;4.22;;
9409;SDS011;4744;52.576;13.568;2022-08-01T07:02:54;4.82;;;4.40;;
9409;SDS011;4744;52.576;13.568;2022-08-01T07:05:23;4.32;;;4.03;;
9409;SDS011;4744;52.576;13.568;2022-08-01T07:07:50;3.85;;;3.55;;
9409;SDS011;4744;52.576;13.568;2022-08-01T07:10:17;4.10;;;3.80;;
9409;SDS011;4744;52.576;13.568;2022-08-01T07:12:44;4.13;;;3.83;;
9409;SDS011;4744;52.576;13.568;2022-08-01T07:15:12;3.97;;;3.60;;
9409;SDS011;4744;52.576;13.568;2022-08-01T07:17:39;4.32;;;3.65;;
9409;SDS011;4744;52.576;13.568;2022-08-01T07:20:07;4.15;;;3.85;;
9409;SDS011;4744;52.576;13.568;2022-08-01T07:22:34;3.70;;;3.50;;
9409;SDS011;4744;52.576;13.568;2022-08-01T07:25:02;3.50;;;3.30;;
9409;SDS011;4744;52.576;13.568;2022-08-01T07:27:30;3.60;;;3.35;;
9409;SDS011;4744;52.576;13.568;2022-08-01T07:29:57;3.80;;;3.50;;
9409;SDS011;4744;52.576;13.568;2022-08-01T07:32:25;3.50;;;3.30;;
9409;SDS011;4744;52.576;13.568;2022-08-01T07:34:52;3.80;;;3.60;;
9409;SDS011;4744;52.576;13.568;2022-08-01T07:37:19;3.55;;;3.33;;
9409;SDS011;4744;52.576;13.568;2022-08-01T07:39:45;3.80;;;3.53;;
9409;SDS011;4744;52.576;13.568;2022-08-01T07:42:12;3.75;;;3.45;;
9409;SDS011;4744;52.576;13.568;2022-08-01T07:44:39;3.70;;;3.50;;
9409;SDS011;4744;52.576;13.568;2022-08-01T07:47:06;3.63;;;3.33;;
9409;SDS011;4744;52.576;13.568;2022-08-01T07:49:34;4.00;;;3.70;;
9409;SDS011;4744;52.576;13.568;2022-08-01T07:52:01;3.20;;;2.90;;
9409;SDS011;4744;52.576;13.568;2022-08-01T07:54:28;3.50;;;3.30;;
9409;SDS011;4744;52.576;13.568;2022-08-01T07:56:55;3.40;;;3.17;;
9409;SDS011;4744;52.576;13.568;2022-08-01T07:59:22;3.10;;;2.90;;
9409;SDS011;4744;52.576;13.568;2022-08-01T08:01:49;3.00;;;2.80;;
9409;SDS011;4744;52.576;13.568;2022-08-01T08:04:16;2.97;;;2.83;;
9409;SDS011;4744;52.576;13.568;2022-08-01T08:06:45;2.83;;;2.67;;
9409;SDS011;4744;52.576;13.568;2022-08-01T08:09:12;2.97;;;2.88;;
9409;SDS011;4744;52.576;13.568;2022-08-01T08:11:41;3.47;;;3.25;;
9409;SDS011;4744;52.576;13.568;2022-08-01T08:14:08;3.47;;;3.25;;
9409;SDS011;4744;52.576;13.568;2022-08-01T08:16:35;3.05;;;2.85;;
9409;SDS011;4744;52.576;13.568;2022-08-01T08:19:02;3.00;;;2.80;;
9409;SDS011;4744;52.576;13.568;2022-08-01T08:21:28;2.90;;;2.70;;
9409;SDS011;4744;52.576;13.568;2022-08-01T08:23:57;2.30;;;2.20;;
9409;SDS011;4744;52.576;13.568;2022-08-01T08:26:41;3.22;;;2.85;;
9409;SDS011;4744;52.576;13.568;2022-08-01T08:29:08;2.95;;;2.85;;
9409;SDS011;4744;52.576;13.568;2022-08-01T08:31:34;2.85;;;2.65;;
9409;SDS011;4744;52.576;13.568;2022-08-01T08:34:01;2.65;;;2.55;;
9409;SDS011;4744;52.576;13.568;2022-08-01T08:36:28;2.50;;;2.30;;
9409;SDS011;4744;52.576;13.568;2022-08-01T08:38:56;2.25;;;2.15;;
9409;SDS011;4744;52.576;13.568;2022-08-01T08:41:25;2.40;;;2.20;;
9409;SDS011;4744;52.576;13.568;2022-08-01T08:43:52;2.20;;;2.10;;
9409;SDS011;4744;52.576;13.568;2022-08-01T08:46:19;2.13;;;2.03;;
9409;SDS011;4744;52.576;13.568;2022-08-01T08:48:47;2.50;;;2.30;;
9409;SDS011;4744;52.576;13.568;2022-08-01T08:51:14;2.25;;;2.15;;
9409;SDS011;4744;52.576;13.568;2022-08-01T08:53:45;2.15;;;2.00;;
9409;SDS011;4744;52.576;13.568;2022-08-01T08:56:14;2.20;;;2.10;;
9409;SDS011;4744;52.576;13.568;2022-08-01T08:58:41;2.15;;;2.00;;
9409;SDS011;4744;52.576;13.568;2022-08-01T09:01:10;2.05;;;1.95;;
9409;SDS011;4744;52.576;13.568;2022-08-01T09:03:37;2.03;;;1.92;;
9409;SDS011;4744;52.576;13.568;2022-08-01T09:06:04;2.53;;;2.33;;
9409;SDS011;4744;52.576;13.568;2022-08-01T09:08:32;2.03;;;1.92;;
9409;SDS011;4744;52.576;13.568;2022-08-01T09:10:59;2.58;;;2.20;;
9409;SDS011;4744;52.576;13.568;2022-08-01T09:13:27;1.90;;;1.80;;
9409;SDS011;4744;52.576;13.568;2022-08-01T09:15:54;2.83;;;2.25;;
9409;SDS011;4744;52.576;13.568;2022-08-01T09:18:26;2.08;;;1.70;;
9409;SDS011;4744;52.576;13.568;2022-08-01T09:21:12;2.00;;;1.90;;
9409;SDS011;4744;52.576;13.568;2022-08-01T09:23:42;2.00;;;1.90;;
9409;SDS011;4744;52.576;13.568;2022-08-01T09:26:10;1.92;;;1.83;;
9409;SDS011;4744;52.576;13.568;2022-08-01T09:28:39;1.50;;;1.50;;
9409;SDS011;4744;52.576;13.568;2022-08-01T09:31:08;1.70;;;1.60;;
9409;SDS011;4744;52.576;13.568;2022-08-01T09:33:49;1.77;;;1.70;;
9409;SDS011;4744;52.576;13.568;2022-08-01T09:36:18;1.60;;;1.60;;
9409;SDS011;4744;52.576;13.568;2022-08-01T09:38:46;1.65;;;1.60;;
9409;SDS011;4744;52.576;13.568;2022-08-01T09:41:12;1.80;;;1.70;;
9409;SDS011;4744;52.576;13.568;2022-08-01T09:43:41;1.60;;;1.48;;
9409;SDS011;4744;52.576;13.568;2022-08-01T09:46:15;1.73;;;1.63;;
9409;SDS011;4744;52.576;13.568;2022-08-01T09:48:54;2.20;;;1.70;;
9409;SDS011;4744;52.576;13.568;2022-08-01T09:51:28;1.98;;;1.50;;
9409;SDS011;4744;52.576;13.568;2022-08-01T09:53:56;2.30;;;1.63;;
9409;SDS011;4744;52.576;13.568;2022-08-01T09:56:24;1.85;;;1.75;;
9409;SDS011;4744;52.576;13.568;2022-08-01T09:58:55;1.92;;;1.70;;
9409;SDS011;4744;52.576;13.568;2022-08-01T10:01:23;1.85;;;1.70;;
9409;SDS011;4744;52.576;13.568;2022-08-01T10:04:06;1.40;;;1.40;;
9409;SDS011;4744;52.576;13.568;2022-08-01T10:06:34;1.73;;;1.63;;
9409;SDS011;4744;52.576;13.568;2022-08-01T10:09:02;1.85;;;1.70;;
9409;SDS011;4744;52.576;13.568;2022-08-01T10:11:29;1.73;;;1.63;;
9409;SDS011;4744;52.576;13.568;2022-08-01T10:13:59;2.25;;;1.40;;
9409;SDS011;4744;52.576;13.568;2022-08-01T10:16:26;2.50;;;1.70;;
9409;SDS011;4744;52.576;13.568;2022-08-01T10:18:54;1.50;;;1.40;;
9409;SDS011;4744;52.576;13.568;2022-08-01T10:21:22;1.63;;;1.52;;
9409;SDS011;4744;52.576;13.568;2022-08-01T10:23:53;2.47;;;1.70;;
9409;SDS011;4744;52.576;13.568;2022-08-01T10:26:21;1.50;;;1.50;;
9409;SDS011;4744;52.576;13.568;2022-08-01T10:28:52;2.58;;;1.77;;
9409;SDS011;4744;52.576;13.568;2022-08-01T10:31:21;1.80;;;1.70;;
9409;SDS011;4744;52.576;13.568;2022-08-01T10:33:49;1.90;;;1.80;;
9409;SDS011;4744;52.576;13.568;2022-08-01T10:36:17;1.70;;;1.60;;
9409;SDS011;4744;52.576;13.568;2022-08-01T10:38:45;1.75;;;1.65;;
9409;SDS011;4744;52.576;13.568;2022-08-01T10:41:13;2.15;;;1.95;;
9409;SDS011;4744;52.576;13.568;2022-08-01T10:43:41;1.58;;;1.55;;
9409;SDS011;4744;52.576;13.568;2022-08-01T10:46:08;2.20;;;2.00;;
9409;SDS011;4744;52.576;13.568;2022-08-01T10:48:39;1.77;;;1.70;;
9409;SDS011;4744;52.576;13.568;2022-08-01T10:51:11;2.28;;;2.00;;
9409;SDS011;4744;52.576;13.568;2022-08-01T10:53:38;1.67;;;1.67;;
9409;SDS011;4744;52.576;13.568;2022-08-01T10:56:12;2.17;;;1.98;;
9409;SDS011;4744;52.576;13.568;2022-08-01T10:58:41;2.17;;;1.98;;
9409;SDS011;4744;52.576;13.568;2022-08-01T11:01:19;2.72;;;2.08;;
9409;SDS011;4744;52.576;13.568;2022-08-01T11:06:41;1.70;;;1.60;;
9409;SDS011;4744;52.576;13.568;2022-08-01T11:09:18;1.80;;;1.70;;
9409;SDS011;4744;52.576;13.568;2022-08-01T11:11:56;1.65;;;1.60;;
9409;SDS011;4744;52.576;13.568;2022-08-01T11:14:29;2.05;;;1.85;;
9409;SDS011;4744;52.576;13.568;2022-08-01T11:16:57;1.75;;;1.65;;
9409;SDS011;4744;52.576;13.568;2022-08-01T11:20:08;1.77;;;1.67;;
9409;SDS011;4744;52.576;13.568;2022-08-01T11:31:40;2.00;;;1.80;;
9409;SDS011;4744;52.576;13.568;2022-08-01T11:34:08;1.73;;;1.60;;
9409;SDS011;4744;52.576;13.568;2022-08-01T11:36:35;1.42;;;1.42;;
9409;SDS011;4744;52.576;13.568;2022-08-01T11:39:12;1.15;;;1.05;;
9409;SDS011;4744;52.576;13.568;2022-08-01T11:41:41;1.70;;;0.90;;
9409;SDS011;4744;52.576;13.568;2022-08-01T11:44:09;0.63;;;0.63;;
9409;SDS011;4744;52.576;13.568;2022-08-01T11:49:35;1.40;;;1.10;;
9409;SDS011;4744;52.576;13.568;2022-08-01T11:52:11;1.00;;;1.00;;
9409;SDS011;4744;52.576;13.568;2022-08-01T11:54:39;0.85;;;0.85;;
9409;SDS011;4744;52.576;13.568;2022-08-01T11:57:09;1.15;;;1.00;;
9409;SDS011;4744;52.576;13.568;2022-08-01T11:59:38;2.35;;;1.08;;
9409;SDS011;4744;52.576;13.568;2022-08-01T12:02:14;1.10;;;1.10;;
9409;SDS011;4744;52.576;13.568;2022-08-01T12:04:54;0.90;;;0.90;;
9409;SDS011;4744;52.576;13.568;2022-08-01T12:07:22;1.20;;;1.20;;
9409;SDS011;4744;52.576;13.568;2022-08-01T12:09:56;1.30;;;1.20;;
9409;SDS011;4744;52.576;13.568;2022-08-01T12:12:25;1.35;;;1.20;;
9409;SDS011;4744;52.576;13.568;2022-08-01T12:14:53;0.90;;;0.90;;
9409;SDS011;4744;52.576;13.568;2022-08-01T12:17:27;1.20;;;1.10;;
9409;SDS011;4744;52.576;13.568;2022-08-01T12:19:56;1.38;;;1.27;;
9409;SDS011;4744;52.576;13.568;2022-08-01T12:22:23;1.10;;;1.10;;
9409;SDS011;4744;52.576;13.568;2022-08-01T12:24:51;1.50;;;1.40;;
9409;SDS011;4744;52.576;13.568;2022-08-01T12:27:25;1.27;;;1.20;;
9409;SDS011;4744;52.576;13.568;2022-08-01T12:29:53;1.50;;;1.20;;
9409;SDS011;4744;52.576;13.568;2022-08-01T12:32:22;1.48;;;1.00;;
9409;SDS011;4744;52.576;13.568;2022-08-01T12:34:50;1.02;;;1.00;;
9409;SDS011;4744;52.576;13.568;2022-08-01T12:37:19;0.98;;;0.98;;
9409;SDS011;4744;52.576;13.568;2022-08-01T12:39:46;1.20;;;1.20;;
9409;SDS011;4744;52.576;13.568;2022-08-01T12:42:13;3.40;;;1.25;;
9409;SDS011;4744;52.576;13.568;2022-08-01T12:44:42;1.05;;;0.90;;
9409;SDS011;4744;52.576;13.568;2022-08-01T12:47:10;1.25;;;0.90;;
9409;SDS011;4744;52.576;13.568;2022-08-01T12:49:38;1.33;;;1.33;;
9409;SDS011;4744;52.576;13.568;2022-08-01T12:52:08;2.65;;;1.90;;
9409;SDS011;4744;52.576;13.568;2022-08-01T12:57:36;1.33;;;1.30;;
9409;SDS011;4744;52.576;13.568;2022-08-01T13:00:09;1.27;;;1.20;;
9409;SDS011;4744;52.576;13.568;2022-08-01T13:02:42;0.95;;;0.95;;
9409;SDS011;4744;52.576;13.568;2022-08-01T13:05:10;2.05;;;1.02;;
9409;SDS011;4744;52.576;13.568;2022-08-01T13:07:37;1.02;;;1.02;;
9409;SDS011;4744;52.576;13.568;2022-08-01T13:10:06;1.00;;;1.00;;
9409;SDS011;4744;52.576;13.568;2022-08-01T13:12:35;1.15;;;1.15;;
9409;SDS011;4744;52.576;13.568;2022-08-01T13:15:16;1.40;;;1.40;;
9409;SDS011;4744;52.576;13.568;2022-08-01T13:17:48;1.67;;;1.35;;
9409;SDS011;4744;52.576;13.568;2022-08-01T13:20:22;1.35;;;1.27;;
9409;SDS011;4744;52.576;13.568;2022-08-01T13:22:53;1.33;;;1.30;;
9409;SDS011;4744;52.576;13.568;2022-08-01T13:25:22;1.90;;;1.45;;
9409;SDS011;4744;52.576;13.568;2022-08-01T13:27:49;1.83;;;1.60;;
9409;SDS011;4744;52.576;13.568;2022-08-01T13:30:35;1.30;;;1.30;;
9409;SDS011;4744;52.576;13.568;2022-08-01T13:33:02;1.40;;;1.40;;
9409;SDS011;4744;52.576;13.568;2022-08-01T13:35:30;1.25;;;1.25;;
9409;SDS011;4744;52.576;13.568;2022-08-01T13:37:56;1.58;;;1.48;;
9409;SDS011;4744;52.576;13.568;2022-08-01T13:40:25;1.30;;;1.30;;
9409;SDS011;4744;52.576;13.568;2022-08-01T13:42:53;1.27;;;1.17;;
9409;SDS011;4744;52.576;13.568;2022-08-01T13:45:21;1.20;;;1.20;;
9409;SDS011;4744;52.576;13.568;2022-08-01T13:47:49;1.40;;;1.40;;
9409;SDS011;4744;52.576;13.568;2022-08-01T13:50:16;1.00;;;1.00;;
9409;SDS011;4744;52.576;13.568;2022-08-01T13:52:42;1.48;;;1.20;;
9409;SDS011;4744;52.576;13.568;2022-08-01T13:55:09;1.50;;;1.40;;
9409;SDS011;4744;52.576;13.568;2022-08-01T13:57:37;1.25;;;1.25;;
9409;SDS011;4744;52.576;13.568;2022-08-01T14:00:05;1.20;;;1.10;;
9409;SDS011;4744;52.576;13.568;2022-08-01T14:02:34;1.45;;;1.38;;
9409;SDS011;4744;52.576;13.568;2022-08-01T14:05:00;4.50;;;1.50;;
9409;SDS011;4744;52.576;13.568;2022-08-01T14:07:27;1.52;;;1.30;;
9409;SDS011;4744;52.576;13.568;2022-08-01T14:09:54;1.10;;;1.10;;
9409;SDS011;4744;52.576;13.568;2022-08-01T14:12:21;1.42;;;1.33;;
9409;SDS011;4744;52.576;13.568;2022-08-01T14:14:49;1.33;;;1.23;;
9409;SDS011;4744;52.576;13.568;2022-08-01T14:17:16;1.60;;;1.38;;
9409;SDS011;4744;52.576;13.568;2022-08-01T14:19:43;1.30;;;1.30;;
9409;SDS011;4744;52.576;13.568;2022-08-01T14:22:10;1.75;;;1.40;;
9409;SDS011;4744;52.576;13.568;2022-08-01T14:24:36;1.08;;;1.08;;
9409;SDS011;4744;52.576;13.568;2022-08-01T14:27:03;1.33;;;1.30;;
9409;SDS011;4744;52.576;13.568;2022-08-01T14:29:30;1.50;;;1.30;;
9409;SDS011;4744;52.576;13.568;2022-08-01T14:31:58;2.00;;;1.30;;
9409;SDS011;4744;52.576;13.568;2022-08-01T14:34:25;3.53;;;1.40;;
9409;SDS011;4744;52.576;13.568;2022-08-01T14:36:52;1.60;;;1.48;;
9409;SDS011;4744;52.576;13.568;2022-08-01T14:39:19;1.30;;;1.30;;
9409;SDS011;4744;52.576;13.568;2022-08-01T14:41:46;1.13;;;1.13;;
9409;SDS011;4744;52.576;13.568;2022-08-01T14:44:13;1.48;;;1.30;;
9409;SDS011;4744;52.576;13.568;2022-08-01T14:46:40;1.38;;;1.30;;
9409;SDS011;4744;52.576;13.568;2022-08-01T14:49:10;1.42;;;1.30;;
9409;SDS011;4744;52.576;13.568;2022-08-01T14:51:37;1.45;;;1.35;;
9409;SDS011;4744;52.576;13.568;2022-08-01T14:54:04;1.50;;;1.40;;
9409;SDS011;4744;52.576;13.568;2022-08-01T14:56:31;1.42;;;1.33;;
9409;SDS011;4744;52.576;13.568;2022-08-01T14:58:58;2.50;;;1.10;;
9409;SDS011;4744;52.576;13.568;2022-08-01T15:01:25;1.00;;;1.00;;
9409;SDS011;4744;52.576;13.568;2022-08-01T15:03:52;1.23;;;1.23;;
9409;SDS011;4744;52.576;13.568;2022-08-01T15:06:20;1.50;;;1.33;;
9409;SDS011;4744;52.576;13.568;2022-08-01T15:08:47;1.50;;;1.40;;
9409;SDS011;4744;52.576;13.568;2022-08-01T15:11:13;3.33;;;1.30;;
9409;SDS011;4744;52.576;13.568;2022-08-01T15:13:40;2.15;;;1.25;;
9409;SDS011;4744;52.576;13.568;2022-08-01T15:16:07;2.65;;;1.30;;
9409;SDS011;4744;52.576;13.568;2022-08-01T15:18:34;1.73;;;1.30;;
9409;SDS011;4744;52.576;13.568;2022-08-01T15:21:00;2.25;;;1.50;;
9409;SDS011;4744;52.576;13.568;2022-08-01T15:23:29;1.38;;;1.23;;
9409;SDS011;4744;52.576;13.568;2022-08-01T15:25:56;0.98;;;0.98;;
9409;SDS011;4744;52.576;13.568;2022-08-01T15:28:22;1.00;;;1.00;;